sensor_id;sensor_type;location;lat;lon;timestamp;pressure;altitude;pressure_sealevel;temperature;humidity
53908;BME280;40469;47.998;7.794;2023-02-28T00:01:06;99485.06;;;-0.03;100.00
53908;BME280;40469;47.998;7.794;2023-02-28T00:03:32;99486.56;;;-0.08;100.00
53908;BME280;40469;47.998;7.794;2023-02-28T00:06:00;99483.69;;;-0.15;100.00
53908;BME280;40469;47.998;7.794;2023-02-28T00:08:25;99487.19;;;-0.13;100.00
53908;BME280;40469;47.998;7.794;2023-02-28T00:10:51;99486.41;;;-0.12;100.00
53908;BME280;40469;47.998;7.794;2023-02-28T00:13:17;99491.03;;;-0.25;100.00
53908;BME280;40469;47.998;7.794;2023-02-28T00:15:42;99492.56;;;-0.28;100.00
53908;BME280;40469;47.998;7.794;2023-02-28T00:18:07;99490.63;;;-0.34;100.00
53908;BME280;40469;47.998;7.794;2023-02-28T00:20:32;99487.19;;;-0.34;100.00
53908;BME280;40469;47.998;7.794;2023-02-28T00:22:58;99488.94;;;-0.33;100.00
53908;BME280;40469;47.998;7.794;2023-02-28T00:25:24;99493.25;;;-0.32;100.00
53908;BME280;40469;47.998;7.794;2023-02-28T00:27:49;99491.63;;;-0.30;100.00
53908;BME280;40469;47.998;7.794;2023-02-28T00:30:15;99492.94;;;-0.40;100.00
53908;BME280;40469;47.998;7.794;2023-02-28T00:32:42;99485.88;;;-0.46;100.00
53908;BME280;40469;47.998;7.794;2023-02-28T00:35:07;99477.09;;;-0.51;100.00
53908;BME280;40469;47.998;7.794;2023-02-28T00:37:33;99488.97;;;-0.53;100.00
53908;BME280;40469;47.998;7.794;2023-02-28T00:39:58;99490.84;;;-0.49;100.00
53908;BME280;40469;47.998;7.794;2023-02-28T00:42:24;99490.31;;;-0.42;100.00
53908;BME280;40469;47.998;7.794;2023-02-28T00:44:49;99488.66;;;-0.40;100.00
53908;BME280;40469;47.998;7.794;2023-02-28T00:47:15;99489.59;;;-0.38;100.00
53908;BME280;40469;47.998;7.794;2023-02-28T00:49:40;99484.41;;;-0.39;100.00
53908;BME280;40469;47.998;7.794;2023-02-28T00:52:06;99482.91;;;-0.34;100.00
53908;BME280;40469;47.998;7.794;2023-02-28T00:54:31;99486.25;;;-0.36;100.00
53908;BME280;40469;47.998;7.794;2023-02-28T00:56:56;99486.94;;;-0.41;100.00
53908;BME280;40469;47.998;7.794;2023-02-28T00:59:21;99480.03;;;-0.42;100.00
53908;BME280;40469;47.998;7.794;2023-02-28T01:01:47;99478.28;;;-0.43;100.00
53908;BME280;40469;47.998;7.794;2023-02-28T01:04:13;99484.47;;;-0.38;100.00
53908;BME280;40469;47.998;7.794;2023-02-28T01:06:38;99480.09;;;-0.40;100.00
53908;BME280;40469;47.998;7.794;2023-02-28T01:09:04;99482.03;;;-0.34;100.00
53908;BME280;40469;47.998;7.794;2023-02-28T01:11:29;99474.59;;;-0.28;100.00
53908;BME280;40469;47.998;7.794;2023-02-28T01:13:55;99477.22;;;-0.27;100.00
53908;BME280;40469;47.998;7.794;2023-02-28T01:16:20;99467.59;;;-0.32;100.00
53908;BME280;40469;47.998;7.794;2023-02-28T01:18:45;99471.03;;;-0.32;100.00
53908;BME280;40469;47.998;7.794;2023-02-28T01:21:12;99469.78;;;-0.42;100.00
53908;BME280;40469;47.998;7.794;2023-02-28T01:23:38;99468.09;;;-0.41;100.00
53908;BME280;40469;47.998;7.794;2023-02-28T01:26:05;99453.59;;;-0.41;100.00
53908;BME280;40469;47.998;7.794;2023-02-28T01:28:30;99452.63;;;-0.43;100.00
53908;BME280;40469;47.998;7.794;2023-02-28T01:30:55;99461.47;;;-0.36;100.00
53908;BME280;40469;47.998;7.794;2023-02-28T01:33:20;99466.34;;;-0.42;100.00
53908;BME280;40469;47.998;7.794;2023-02-28T01:35:46;99468.50;;;-0.51;100.00
53908;BME280;40469;47.998;7.794;2023-02-28T01:38:11;99460.69;;;-0.54;100.00
53908;BME280;40469;47.998;7.794;2023-02-28T01:40:36;99467.63;;;-0.52;100.00
53908;BME280;40469;47.998;7.794;2023-02-28T01:43:01;99470.97;;;-0.54;100.00
53908;BME280;40469;47.998;7.794;2023-02-28T01:45:30;99472.53;;;-0.58;100.00
53908;BME280;40469;47.998;7.794;2023-02-28T01:48:05;99471.91;;;-0.52;100.00
53908;BME280;40469;47.998;7.794;2023-02-28T01:50:34;99468.03;;;-0.62;100.00
53908;BME280;40469;47.998;7.794;2023-02-28T01:53:02;99461.19;;;-0.63;100.00
53908;BME280;40469;47.998;7.794;2023-02-28T01:55:28;99460.25;;;-0.65;100.00
53908;BME280;40469;47.998;7.794;2023-02-28T01:57:57;99464.28;;;-0.70;100.00
53908;BME280;40469;47.998;7.794;2023-02-28T02:00:24;99456.78;;;-0.66;100.00
53908;BME280;40469;47.998;7.794;2023-02-28T02:02:53;99456.72;;;-0.67;100.00
53908;BME280;40469;47.998;7.794;2023-02-28T02:05:19;99455.63;;;-0.72;100.00
53908;BME280;40469;47.998;7.794;2023-02-28T02:07:47;99450.72;;;-0.68;100.00
53908;BME280;40469;47.998;7.794;2023-02-28T02:15:16;99454.22;;;-0.66;100.00
53908;BME280;40469;47.998;7.794;2023-02-28T02:17:46;99445.38;;;-0.72;100.00
53908;BME280;40469;47.998;7.794;2023-02-28T02:35:55;99448.97;;;-1.08;100.00
53908;BME280;40469;47.998;7.794;2023-02-28T02:41:36;99449.31;;;-1.20;100.00
53908;BME280;40469;47.998;7.794;2023-02-28T02:43:58;99452.34;;;-1.28;100.00
53908;BME280;40469;47.998;7.794;2023-02-28T02:46:31;99441.50;;;-1.23;100.00
53908;BME280;40469;47.998;7.794;2023-02-28T02:48:58;99444.78;;;-1.25;100.00
53908;BME280;40469;47.998;7.794;2023-02-28T02:51:25;99449.91;;;-1.25;100.00
53908;BME280;40469;47.998;7.794;2023-02-28T02:54:00;99453.50;;;-1.22;100.00
53908;BME280;40469;47.998;7.794;2023-02-28T02:56:28;99445.75;;;-1.23;100.00
53908;BME280;40469;47.998;7.794;2023-02-28T02:58:55;99442.91;;;-1.29;100.00
53908;BME280;40469;47.998;7.794;2023-02-28T03:01:23;99447.22;;;-1.28;100.00
53908;BME280;40469;47.998;7.794;2023-02-28T03:03:54;99441.28;;;-1.27;100.00
53908;BME280;40469;47.998;7.794;2023-02-28T03:06:20;99442.28;;;-1.24;100.00
53908;BME280;40469;47.998;7.794;2023-02-28T03:08:45;99435.63;;;-1.20;100.00
53908;BME280;40469;47.998;7.794;2023-02-28T03:11:13;99438.06;;;-1.23;100.00
53908;BME280;40469;47.998;7.794;2023-02-28T03:13:52;99444.13;;;-1.21;100.00
53908;BME280;40469;47.998;7.794;2023-02-28T03:23:54;99440.16;;;-1.34;100.00
53908;BME280;40469;47.998;7.794;2023-02-28T03:26:23;99444.53;;;-1.31;100.00
53908;BME280;40469;47.998;7.794;2023-02-28T03:28:52;99443.03;;;-1.26;100.00
53908;BME280;40469;47.998;7.794;2023-02-28T03:33:55;99433.59;;;-1.27;100.00
53908;BME280;40469;47.998;7.794;2023-02-28T03:36:25;99432.88;;;-1.25;100.00
53908;BME280;40469;47.998;7.794;2023-02-28T03:38:54;99429.94;;;-1.33;100.00
53908;BME280;40469;47.998;7.794;2023-02-28T03:41:23;99434.41;;;-1.28;100.00
53908;BME280;40469;47.998;7.794;2023-02-28T03:43:53;99436.75;;;-1.33;100.00
53908;BME280;40469;47.998;7.794;2023-02-28T03:46:20;99440.88;;;-1.37;100.00
53908;BME280;40469;47.998;7.794;2023-02-28T03:49:08;99445.91;;;-1.38;100.00
53908;BME280;40469;47.998;7.794;2023-02-28T03:51:35;99438.31;;;-1.37;100.00
53908;BME280;40469;47.998;7.794;2023-02-28T03:54:04;99440.72;;;-1.40;100.00
53908;BME280;40469;47.998;7.794;2023-02-28T03:56:32;99442.63;;;-1.36;100.00
53908;BME280;40469;47.998;7.794;2023-02-28T03:59:00;99451.94;;;-1.38;100.00
53908;BME280;40469;47.998;7.794;2023-02-28T04:01:31;99446.00;;;-1.37;100.00
53908;BME280;40469;47.998;7.794;2023-02-28T04:03:58;99441.81;;;-1.35;100.00
53908;BME280;40469;47.998;7.794;2023-02-28T04:06:23;99443.56;;;-1.34;100.00
53908;BME280;40469;47.998;7.794;2023-02-28T04:08:49;99444.25;;;-1.38;100.00
53908;BME280;40469;47.998;7.794;2023-02-28T04:11:32;99445.84;;;-1.40;100.00
53908;BME280;40469;47.998;7.794;2023-02-28T04:13:59;99448.34;;;-1.41;100.00
53908;BME280;40469;47.998;7.794;2023-02-28T04:16:24;99446.59;;;-1.42;100.00
53908;BME280;40469;47.998;7.794;2023-02-28T04:18:50;99450.97;;;-1.40;100.00
53908;BME280;40469;47.998;7.794;2023-02-28T04:21:15;99453.75;;;-1.35;100.00
53908;BME280;40469;47.998;7.794;2023-02-28T04:23:40;99453.91;;;-1.32;100.00
53908;BME280;40469;47.998;7.794;2023-02-28T04:26:06;99455.56;;;-1.33;100.00
53908;BME280;40469;47.998;7.794;2023-02-28T04:28:32;99458.88;;;-1.35;100.00
53908;BME280;40469;47.998;7.794;2023-02-28T04:30:57;99457.25;;;-1.33;100.00
53908;BME280;40469;47.998;7.794;2023-02-28T04:33:23;99461.78;;;-1.27;100.00
53908;BME280;40469;47.998;7.794;2023-02-28T04:35:48;99457.47;;;-1.28;100.00
53908;BME280;40469;47.998;7.794;2023-02-28T04:38:13;99462.84;;;-1.22;100.00
53908;BME280;40469;47.998;7.794;2023-02-28T04:40:38;99471.56;;;-1.19;100.00
53908;BME280;40469;47.998;7.794;2023-02-28T04:43:04;99467.13;;;-1.23;100.00
53908;BME280;40469;47.998;7.794;2023-02-28T04:45:29;99467.84;;;-1.25;100.00
53908;BME280;40469;47.998;7.794;2023-02-28T04:47:57;99469.69;;;-1.23;100.00
53908;BME280;40469;47.998;7.794;2023-02-28T04:50:22;99466.97;;;-1.26;100.00
53908;BME280;40469;47.998;7.794;2023-02-28T04:52:47;99472.31;;;-1.21;100.00
53908;BME280;40469;47.998;7.794;2023-02-28T04:55:12;99465.56;;;-1.19;100.00
53908;BME280;40469;47.998;7.794;2023-02-28T04:57:38;99472.56;;;-1.15;100.00
53908;BME280;40469;47.998;7.794;2023-02-28T05:00:03;99464.09;;;-1.14;100.00
53908;BME280;40469;47.998;7.794;2023-02-28T05:02:33;99475.44;;;-1.09;100.00
53908;BME280;40469;47.998;7.794;2023-02-28T05:04:58;99481.50;;;-1.07;100.00
53908;BME280;40469;47.998;7.794;2023-02-28T05:07:24;99468.00;;;-1.03;100.00
53908;BME280;40469;47.998;7.794;2023-02-28T05:09:49;99465.56;;;-1.00;100.00
53908;BME280;40469;47.998;7.794;2023-02-28T05:12:14;99473.25;;;-1.00;100.00
53908;BME280;40469;47.998;7.794;2023-02-28T05:14:39;99478.38;;;-1.00;100.00
53908;BME280;40469;47.998;7.794;2023-02-28T05:17:05;99475.91;;;-0.98;100.00
53908;BME280;40469;47.998;7.794;2023-02-28T05:19:30;99478.69;;;-0.93;100.00
53908;BME280;40469;47.998;7.794;2023-02-28T05:21:55;99477.63;;;-0.97;100.00
53908;BME280;40469;47.998;7.794;2023-02-28T05:24:21;99481.09;;;-0.97;100.00
53908;BME280;40469;47.998;7.794;2023-02-28T05:26:50;99485.13;;;-1.02;100.00
53908;BME280;40469;47.998;7.794;2023-02-28T05:29:16;99494.53;;;-1.02;100.00
53908;BME280;40469;47.998;7.794;2023-02-28T05:31:41;99490.19;;;-1.03;100.00
53908;BME280;40469;47.998;7.794;2023-02-28T05:34:06;99480.63;;;-1.07;100.00
53908;BME280;40469;47.998;7.794;2023-02-28T05:36:32;99484.84;;;-1.08;100.00
53908;BME280;40469;47.998;7.794;2023-02-28T05:38:58;99491.06;;;-1.03;100.00
53908;BME280;40469;47.998;7.794;2023-02-28T05:41:23;99496.94;;;-1.05;100.00
53908;BME280;40469;47.998;7.794;2023-02-28T05:43:48;99498.13;;;-1.17;100.00
53908;BME280;40469;47.998;7.794;2023-02-28T05:46:13;99497.19;;;-1.19;100.00
53908;BME280;40469;47.998;7.794;2023-02-28T05:48:40;99498.94;;;-1.18;100.00
53908;BME280;40469;47.998;7.794;2023-02-28T05:51:06;99497.09;;;-1.20;100.00
53908;BME280;40469;47.998;7.794;2023-02-28T05:53:31;99497.19;;;-1.19;100.00
53908;BME280;40469;47.998;7.794;2023-02-28T05:55:57;99497.00;;;-1.23;100.00
53908;BME280;40469;47.998;7.794;2023-02-28T05:58:22;99496.91;;;-1.25;100.00
53908;BME280;40469;47.998;7.794;2023-02-28T06:00:48;99489.53;;;-1.37;100.00
53908;BME280;40469;47.998;7.794;2023-02-28T06:03:13;99494.59;;;-1.38;100.00
53908;BME280;40469;47.998;7.794;2023-02-28T06:05:38;99488.53;;;-1.40;100.00
53908;BME280;40469;47.998;7.794;2023-02-28T06:08:04;99499.06;;;-1.34;100.00
53908;BME280;40469;47.998;7.794;2023-02-28T06:10:31;99489.53;;;-1.37;100.00
53908;BME280;40469;47.998;7.794;2023-02-28T06:12:59;99489.69;;;-1.34;100.00
53908;BME280;40469;47.998;7.794;2023-02-28T06:15:24;99490.28;;;-1.39;100.00
53908;BME280;40469;47.998;7.794;2023-02-28T06:17:49;99488.44;;;-1.42;100.00
53908;BME280;40469;47.998;7.794;2023-02-28T06:20:15;99494.44;;;-1.41;100.00
53908;BME280;40469;47.998;7.794;2023-02-28T06:22:40;99503.66;;;-1.45;100.00
53908;BME280;40469;47.998;7.794;2023-02-28T06:25:05;99497.91;;;-1.41;100.00
53908;BME280;40469;47.998;7.794;2023-02-28T06:27:31;99503.91;;;-1.58;100.00
53908;BME280;40469;47.998;7.794;2023-02-28T06:29:56;99501.84;;;-1.47;100.00
53908;BME280;40469;47.998;7.794;2023-02-28T06:32:22;99506.03;;;-1.49;100.00
53908;BME280;40469;47.998;7.794;2023-02-28T06:34:47;99510.41;;;-1.47;100.00
53908;BME280;40469;47.998;7.794;2023-02-28T06:37:12;99518.81;;;-1.49;100.00
53908;BME280;40469;47.998;7.794;2023-02-28T06:39:38;99512.63;;;-1.55;100.00
53908;BME280;40469;47.998;7.794;2023-02-28T06:42:04;99509.59;;;-1.46;100.00
53908;BME280;40469;47.998;7.794;2023-02-28T06:44:29;99513.97;;;-1.43;100.00
53908;BME280;40469;47.998;7.794;2023-02-28T06:47:00;99522.50;;;-1.44;100.00
53908;BME280;40469;47.998;7.794;2023-02-28T06:49:28;99520.00;;;-1.43;100.00
53908;BME280;40469;47.998;7.794;2023-02-28T06:51:53;99530.16;;;-1.44;100.00
53908;BME280;40469;47.998;7.794;2023-02-28T06:54:19;99520.00;;;-1.43;100.00
53908;BME280;40469;47.998;7.794;2023-02-28T06:56:44;99525.84;;;-1.45;100.00
53908;BME280;40469;47.998;7.794;2023-02-28T06:59:09;99528.31;;;-1.47;100.00
53908;BME280;40469;47.998;7.794;2023-02-28T07:01:34;99530.97;;;-1.45;100.00
53908;BME280;40469;47.998;7.794;2023-02-28T07:04:00;99530.97;;;-1.45;100.00
53908;BME280;40469;47.998;7.794;2023-02-28T07:06:25;99536.31;;;-1.41;100.00
53908;BME280;40469;47.998;7.794;2023-02-28T07:08:51;99526.34;;;-1.35;100.00
53908;BME280;40469;47.998;7.794;2023-02-28T07:11:17;99532.28;;;-1.36;100.00
53908;BME280;40469;47.998;7.794;2023-02-28T07:13:43;99533.94;;;-1.36;100.00
53908;BME280;40469;47.998;7.794;2023-02-28T07:16:09;99534.97;;;-1.33;100.00
53908;BME280;40469;47.998;7.794;2023-02-28T07:18:35;99545.97;;;-1.35;100.00
53908;BME280;40469;47.998;7.794;2023-02-28T07:21:01;99537.16;;;-1.22;100.00
53908;BME280;40469;47.998;7.794;2023-02-28T07:23:26;99548.56;;;-1.16;100.00
53908;BME280;40469;47.998;7.794;2023-02-28T07:25:52;99537.53;;;-1.15;100.00
53908;BME280;40469;47.998;7.794;2023-02-28T07:28:17;99540.03;;;-1.16;100.00
53908;BME280;40469;47.998;7.794;2023-02-28T07:30:42;99539.78;;;-1.21;100.00
53908;BME280;40469;47.998;7.794;2023-02-28T07:33:08;99536.56;;;-1.17;100.00
53908;BME280;40469;47.998;7.794;2023-02-28T07:35:33;99538.09;;;-1.02;100.00
53908;BME280;40469;47.998;7.794;2023-02-28T07:37:58;99543.47;;;-0.96;100.00
53908;BME280;40469;47.998;7.794;2023-02-28T07:40:24;99540.22;;;-0.92;100.00
53908;BME280;40469;47.998;7.794;2023-02-28T07:42:49;99536.66;;;-0.96;100.00
53908;BME280;40469;47.998;7.794;2023-02-28T07:45:15;99545.03;;;-1.00;100.00
53908;BME280;40469;47.998;7.794;2023-02-28T07:47:41;99545.97;;;-0.98;100.00
53908;BME280;40469;47.998;7.794;2023-02-28T07:50:07;99546.34;;;-0.90;100.00
53908;BME280;40469;47.998;7.794;2023-02-28T07:52:32;99544.97;;;-0.82;100.00
53908;BME280;40469;47.998;7.794;2023-02-28T07:54:58;99551.34;;;-0.73;100.00
53908;BME280;40469;47.998;7.794;2023-02-28T07:57:23;99553.28;;;-0.68;100.00
53908;BME280;40469;47.998;7.794;2023-02-28T07:59:48;99541.34;;;-0.67;100.00
53908;BME280;40469;47.998;7.794;2023-02-28T08:02:14;99546.34;;;-0.70;100.00
53908;BME280;40469;47.998;7.794;2023-02-28T08:04:39;99543.78;;;-0.70;100.00
53908;BME280;40469;47.998;7.794;2023-02-28T08:07:05;99543.09;;;-0.66;100.00
53908;BME280;40469;47.998;7.794;2023-02-28T08:09:30;99545.34;;;-0.54;100.00
53908;BME280;40469;47.998;7.794;2023-02-28T08:11:55;99542.47;;;-0.41;100.00
53908;BME280;40469;47.998;7.794;2023-02-28T08:14:21;99549.69;;;-0.32;100.00
53908;BME280;40469;47.998;7.794;2023-02-28T08:16:46;99550.44;;;-0.35;100.00
53908;BME280;40469;47.998;7.794;2023-02-28T08:19:11;99548.50;;;-0.20;100.00
53908;BME280;40469;47.998;7.794;2023-02-28T08:21:36;99542.28;;;-0.26;100.00
53908;BME280;40469;47.998;7.794;2023-02-28T08:24:02;99548.47;;;-0.21;100.00
53908;BME280;40469;47.998;7.794;2023-02-28T08:26:27;99548.59;;;-0.18;100.00
53908;BME280;40469;47.998;7.794;2023-02-28T08:28:52;99546.78;;;-0.21;100.00
53908;BME280;40469;47.998;7.794;2023-02-28T08:31:18;99546.66;;;-0.24;100.00
53908;BME280;40469;47.998;7.794;2023-02-28T08:33:43;99556.28;;;-0.18;100.00
53908;BME280;40469;47.998;7.794;2023-02-28T08:36:09;99553.13;;;-0.12;100.00
53908;BME280;40469;47.998;7.794;2023-02-28T08:38:35;99559.00;;;-0.15;100.00
53908;BME280;40469;47.998;7.794;2023-02-28T08:41:02;99552.44;;;-0.08;100.00
53908;BME280;40469;47.998;7.794;2023-02-28T08:43:28;99554.63;;;-0.17;100.00
53908;BME280;40469;47.998;7.794;2023-02-28T08:45:54;99560.28;;;-0.05;100.00
53908;BME280;40469;47.998;7.794;2023-02-28T08:48:19;99563.22;;;0.04;100.00
53908;BME280;40469;47.998;7.794;2023-02-28T08:50:45;99562.94;;;-0.02;100.00
53908;BME280;40469;47.998;7.794;2023-02-28T08:53:19;99570.16;;;0.07;100.00
53908;BME280;40469;47.998;7.794;2023-02-28T08:55:44;99574.66;;;0.12;100.00
53908;BME280;40469;47.998;7.794;2023-02-28T08:58:10;99569.34;;;0.08;100.00
53908;BME280;40469;47.998;7.794;2023-02-28T09:00:35;99568.88;;;0.16;100.00
53908;BME280;40469;47.998;7.794;2023-02-28T09:03:01;99571.28;;;0.13;100.00
53908;BME280;40469;47.998;7.794;2023-02-28T09:05:26;99574.63;;;0.32;100.00
53908;BME280;40469;47.998;7.794;2023-02-28T09:07:54;99570.31;;;0.31;100.00
53908;BME280;40469;47.998;7.794;2023-02-28T09:10:19;99573.44;;;0.45;100.00
53908;BME280;40469;47.998;7.794;2023-02-28T09:12:44;99569.03;;;0.42;100.00
53908;BME280;40469;47.998;7.794;2023-02-28T09:15:12;99563.31;;;0.49;100.00
53908;BME280;40469;47.998;7.794;2023-02-28T09:17:37;99565.28;;;0.55;100.00
53908;BME280;40469;47.998;7.794;2023-02-28T09:20:02;99568.41;;;1.14;100.00
53908;BME280;40469;47.998;7.794;2023-02-28T09:22:28;99559.19;;;1.43;100.00
53908;BME280;40469;47.998;7.794;2023-02-28T09:24:53;99564.59;;;1.51;100.00
53908;BME280;40469;47.998;7.794;2023-02-28T09:27:18;99553.09;;;1.89;100.00
53908;BME280;40469;47.998;7.794;2023-02-28T09:29:44;99560.34;;;2.27;100.00
53908;BME280;40469;47.998;7.794;2023-02-28T09:32:09;99558.47;;;2.76;100.00
53908;BME280;40469;47.998;7.794;2023-02-28T09:34:34;99553.88;;;3.53;100.00
53908;BME280;40469;47.998;7.794;2023-02-28T09:37:02;99557.44;;;4.24;100.00
53908;BME280;40469;47.998;7.794;2023-02-28T09:39:27;99560.03;;;4.24;100.00
53908;BME280;40469;47.998;7.794;2023-02-28T09:41:53;99560.78;;;4.20;100.00
53908;BME280;40469;47.998;7.794;2023-02-28T09:44:35;99563.84;;;4.38;100.00
53908;BME280;40469;47.998;7.794;2023-02-28T09:49:46;99556.22;;;4.81;100.00
53908;BME280;40469;47.998;7.794;2023-02-28T09:52:17;99546.69;;;5.62;100.00
53908;BME280;40469;47.998;7.794;2023-02-28T09:54:44;99554.69;;;6.18;97.20
53908;BME280;40469;47.998;7.794;2023-02-28T09:57:18;99547.44;;;6.52;95.89
53908;BME280;40469;47.998;7.794;2023-02-28T09:59:56;99558.38;;;6.88;91.75
53908;BME280;40469;47.998;7.794;2023-02-28T10:04:58;99557.66;;;5.94;96.98
53908;BME280;40469;47.998;7.794;2023-02-28T10:07:36;99549.91;;;4.69;100.00
53908;BME280;40469;47.998;7.794;2023-02-28T10:10:06;99550.09;;;4.77;100.00
53908;BME280;40469;47.998;7.794;2023-02-28T10:12:38;99548.59;;;5.26;100.00
53908;BME280;40469;47.998;7.794;2023-02-28T10:15:07;99547.59;;;4.82;100.00
53908;BME280;40469;47.998;7.794;2023-02-28T10:17:39;99552.69;;;5.59;100.00
53908;BME280;40469;47.998;7.794;2023-02-28T10:20:17;99546.75;;;6.09;100.00
53908;BME280;40469;47.998;7.794;2023-02-28T10:25:26;99547.38;;;7.76;86.22
53908;BME280;40469;47.998;7.794;2023-02-28T10:27:53;99560.53;;;7.91;82.60
53908;BME280;40469;47.998;7.794;2023-02-28T10:30:19;99554.34;;;7.78;89.37
53908;BME280;40469;47.998;7.794;2023-02-28T10:32:49;99563.38;;;7.36;85.17
53908;BME280;40469;47.998;7.794;2023-02-28T10:35:17;99556.72;;;6.93;85.56
53908;BME280;40469;47.998;7.794;2023-02-28T10:37:43;99561.06;;;5.05;96.24
53908;BME280;40469;47.998;7.794;2023-02-28T10:40:26;99567.03;;;5.02;100.00
53908;BME280;40469;47.998;7.794;2023-02-28T10:42:58;99560.44;;;4.77;100.00
53908;BME280;40469;47.998;7.794;2023-02-28T10:45:24;99563.00;;;5.56;100.00
53908;BME280;40469;47.998;7.794;2023-02-28T10:47:57;99569.91;;;6.01;100.00
53908;BME280;40469;47.998;7.794;2023-02-28T10:52:54;99566.28;;;6.97;93.21
53908;BME280;40469;47.998;7.794;2023-02-28T10:55:22;99569.34;;;7.32;87.87
53908;BME280;40469;47.998;7.794;2023-02-28T10:57:48;99570.88;;;7.13;86.09
53908;BME280;40469;47.998;7.794;2023-02-28T11:02:38;99575.81;;;6.96;87.39
53908;BME280;40469;47.998;7.794;2023-02-28T11:05:30;99576.66;;;6.95;95.56
53908;BME280;40469;47.998;7.794;2023-02-28T11:07:56;99571.31;;;7.49;87.36
53908;BME280;40469;47.998;7.794;2023-02-28T11:10:25;99564.63;;;7.68;80.76
53908;BME280;40469;47.998;7.794;2023-02-28T11:12:54;99567.19;;;7.00;84.81
53908;BME280;40469;47.998;7.794;2023-02-28T11:17:52;99569.31;;;7.28;86.08
53908;BME280;40469;47.998;7.794;2023-02-28T11:20:20;99564.63;;;7.71;84.95
53908;BME280;40469;47.998;7.794;2023-02-28T11:22:47;99565.25;;;7.50;80.24
53908;BME280;40469;47.998;7.794;2023-02-28T11:25:29;99567.94;;;6.90;85.51
53908;BME280;40469;47.998;7.794;2023-02-28T11:27:59;99563.22;;;7.24;94.06
53908;BME280;40469;47.998;7.794;2023-02-28T11:30:36;99563.97;;;7.17;85.66
53908;BME280;40469;47.998;7.794;2023-02-28T11:35:45;99564.94;;;7.97;86.71
53908;BME280;40469;47.998;7.794;2023-02-28T11:38:13;99569.44;;;8.12;85.24
53908;BME280;40469;47.998;7.794;2023-02-28T11:51:34;99559.16;;;6.82;95.81
53908;BME280;40469;47.998;7.794;2023-02-28T11:54:04;99558.06;;;6.68;92.47
53908;BME280;40469;47.998;7.794;2023-02-28T11:56:43;99564.66;;;6.47;92.64
53908;BME280;40469;47.998;7.794;2023-02-28T11:59:14;99555.94;;;5.93;98.46
53908;BME280;40469;47.998;7.794;2023-02-28T12:01:54;99552.78;;;6.61;99.55
53908;BME280;40469;47.998;7.794;2023-02-28T12:04:27;99552.91;;;7.32;96.38
53908;BME280;40469;47.998;7.794;2023-02-28T12:07:16;99553.94;;;8.24;88.78
53908;BME280;40469;47.998;7.794;2023-02-28T12:25:06;99560.72;;;6.19;100.00
53908;BME280;40469;47.998;7.794;2023-02-28T12:27:43;99568.91;;;5.93;100.00
53908;BME280;40469;47.998;7.794;2023-02-28T12:30:22;99552.19;;;4.93;100.00
53908;BME280;40469;47.998;7.794;2023-02-28T12:32:54;99549.25;;;4.78;100.00
53908;BME280;40469;47.998;7.794;2023-02-28T12:35:31;99546.16;;;4.56;100.00
53908;BME280;40469;47.998;7.794;2023-02-28T12:37:58;99549.25;;;4.78;100.00
53908;BME280;40469;47.998;7.794;2023-02-28T12:40:28;99546.75;;;4.83;100.00
53908;BME280;40469;47.998;7.794;2023-02-28T12:42:59;99547.53;;;4.42;100.00
53908;BME280;40469;47.998;7.794;2023-02-28T12:48:13;99546.28;;;5.01;100.00
53908;BME280;40469;47.998;7.794;2023-02-28T12:50:39;99539.84;;;5.21;100.00
53908;BME280;40469;47.998;7.794;2023-02-28T13:00:29;99533.88;;;5.25;100.00
53908;BME280;40469;47.998;7.794;2023-02-28T13:13:14;99526.94;;;4.83;100.00
53908;BME280;40469;47.998;7.794;2023-02-28T13:15:40;99526.19;;;5.28;100.00
53908;BME280;40469;47.998;7.794;2023-02-28T13:18:24;99523.84;;;5.86;100.00
53908;BME280;40469;47.998;7.794;2023-02-28T13:20:52;99523.09;;;6.44;100.00
53908;BME280;40469;47.998;7.794;2023-02-28T13:23:36;99531.41;;;6.21;98.70
53908;BME280;40469;47.998;7.794;2023-02-28T13:26:02;99532.88;;;6.07;100.00
53908;BME280;40469;47.998;7.794;2023-02-28T13:31:12;99530.59;;;5.34;100.00
53908;BME280;40469;47.998;7.794;2023-02-28T13:38:46;99541.97;;;5.00;100.00
53908;BME280;40469;47.998;7.794;2023-02-28T13:44:09;99544.16;;;4.81;100.00
53908;BME280;40469;47.998;7.794;2023-02-28T13:46:36;99540.81;;;4.85;100.00
53908;BME280;40469;47.998;7.794;2023-02-28T13:51:47;99532.31;;;4.54;100.00
53908;BME280;40469;47.998;7.794;2023-02-28T13:56:53;99541.16;;;4.63;100.00
53908;BME280;40469;47.998;7.794;2023-02-28T13:59:30;99539.81;;;4.80;100.00
53908;BME280;40469;47.998;7.794;2023-02-28T14:07:19;99537.91;;;4.71;100.00
53908;BME280;40469;47.998;7.794;2023-02-28T14:09:46;99540.38;;;4.67;100.00
53908;BME280;40469;47.998;7.794;2023-02-28T14:15:00;99541.47;;;4.78;100.00
53908;BME280;40469;47.998;7.794;2023-02-28T14:17:25;99538.72;;;4.70;100.00
53908;BME280;40469;47.998;7.794;2023-02-28T14:19:51;99547.31;;;4.68;100.00
53908;BME280;40469;47.998;7.794;2023-02-28T14:25:18;99547.97;;;4.59;100.00
53908;BME280;40469;47.998;7.794;2023-02-28T14:27:48;99557.28;;;4.52;100.00
53908;BME280;40469;47.998;7.794;2023-02-28T14:35:40;99550.56;;;4.24;100.00
53908;BME280;40469;47.998;7.794;2023-02-28T14:41:12;99549.88;;;4.31;100.00
53908;BME280;40469;47.998;7.794;2023-02-28T14:43:47;99552.19;;;4.21;100.00
53908;BME280;40469;47.998;7.794;2023-02-28T14:46:12;99548.78;;;4.23;100.00
53908;BME280;40469;47.998;7.794;2023-02-28T14:48:38;99546.16;;;4.20;100.00
53908;BME280;40469;47.998;7.794;2023-02-28T14:51:03;99555.53;;;4.16;100.00
53908;BME280;40469;47.998;7.794;2023-02-28T14:53:29;99551.50;;;4.28;100.00
53908;BME280;40469;47.998;7.794;2023-02-28T14:55:59;99554.53;;;4.45;100.00
53908;BME280;40469;47.998;7.794;2023-02-28T15:00:51;99551.38;;;4.23;100.00
53908;BME280;40469;47.998;7.794;2023-02-28T15:05:52;99556.91;;;4.04;100.00
53908;BME280;40469;47.998;7.794;2023-02-28T15:08:18;99553.50;;;4.05;100.00
53908;BME280;40469;47.998;7.794;2023-02-28T15:11:06;99555.16;;;4.01;100.00
53908;BME280;40469;47.998;7.794;2023-02-28T15:16:30;99552.50;;;3.66;100.00
53908;BME280;40469;47.998;7.794;2023-02-28T15:19:01;99551.88;;;3.75;100.00